createdAt,value
2017-01-18T00:00:57.729Z,-1.22
2017-01-18T00:02:11.550Z,-1.26
2017-01-18T00:03:24.987Z,-1.29
2017-01-18T00:04:38.537Z,-1.32
2017-01-18T00:05:52.056Z,-1.35
2017-01-18T00:07:07.052Z,-1.37
2017-01-18T00:08:20.583Z,-1.4
2017-01-18T00:09:34.054Z,-1.39
2017-01-18T00:10:47.489Z,-1.38
2017-01-18T00:12:01.391Z,-1.37
2017-01-18T00:13:16.879Z,-1.36
2017-01-18T00:14:30.837Z,-1.39
2017-01-18T00:15:45.121Z,-1.44
2017-01-18T00:16:59.135Z,-1.54
2017-01-18T00:18:14.068Z,-1.57
2017-01-18T00:19:28.910Z,-1.55
2017-01-18T00:20:43.006Z,-1.54
2017-01-18T00:21:56.475Z,-1.53
2017-01-18T00:23:12.199Z,-1.53
2017-01-18T00:24:26.374Z,-1.5
2017-01-18T00:25:41.063Z,-1.5
2017-01-18T00:26:55.201Z,-1.5
2017-01-18T00:28:09.063Z,-1.51
2017-01-18T00:29:23.331Z,-1.52
2017-01-18T00:30:37.034Z,-1.51
2017-01-18T00:31:50.973Z,-1.5
2017-01-18T00:33:05.856Z,-1.48
2017-01-18T00:34:19.986Z,-1.47
2017-01-18T00:35:33.467Z,-1.47
2017-01-18T00:36:47.376Z,-1.45
2017-01-18T00:38:02.322Z,-1.46
2017-01-18T00:39:15.812Z,-1.46
2017-01-18T00:40:29.414Z,-1.48
2017-01-18T00:41:43.021Z,-1.5
2017-01-18T00:42:56.442Z,-1.52
2017-01-18T00:44:11.516Z,-1.55
2017-01-18T00:45:25.404Z,-1.55
2017-01-18T00:46:38.830Z,-1.56
2017-01-18T00:47:52.306Z,-1.56
2017-01-18T00:49:06.383Z,-1.52
2017-01-18T00:50:20.109Z,-1.51
2017-01-18T00:51:34.207Z,-1.47
2017-01-18T00:52:47.657Z,-1.41
2017-01-18T00:54:01.476Z,-1.37
2017-01-18T00:55:15.344Z,-1.32
2017-01-18T00:56:29.061Z,-1.3
2017-01-18T00:57:42.485Z,-1.28
2017-01-18T00:58:55.899Z,-1.27
2017-01-18T01:00:09.365Z,-1.27
2017-01-18T01:01:22.959Z,-1.27
2017-01-18T01:02:36.771Z,-1.25
2017-01-18T01:03:50.175Z,-1.25
2017-01-18T01:05:03.665Z,-1.26
2017-01-18T01:06:17.141Z,-1.29
2017-01-18T01:07:30.584Z,-1.33
2017-01-18T01:08:44.476Z,-1.36
2017-01-18T01:09:59.876Z,-1.37
2017-01-18T01:11:14.708Z,-1.38
2017-01-18T01:12:28.230Z,-1.38
2017-01-18T01:13:41.713Z,-1.4
2017-01-18T01:14:55.879Z,-1.38
2017-01-18T01:16:09.364Z,-1.36
2017-01-18T01:17:23.342Z,-1.37
2017-01-18T01:18:37.079Z,-1.39
2017-01-18T01:19:50.551Z,-1.4
2017-01-18T01:21:04.918Z,-1.4
2017-01-18T01:22:18.383Z,-1.36
2017-01-18T01:23:32.241Z,-1.33
2017-01-18T01:24:45.905Z,-1.29
2017-01-18T01:25:59.389Z,-1.28
2017-01-18T01:27:13.441Z,-1.29
2017-01-18T01:28:27.048Z,-1.3
2017-01-18T01:29:40.465Z,-1.33
2017-01-18T01:30:53.978Z,-1.35
2017-01-18T01:32:07.475Z,-1.36
2017-01-18T01:33:21.211Z,-1.33
2017-01-18T01:34:36.575Z,-1.35
2017-01-18T01:35:50.009Z,-1.36
2017-01-18T01:37:05.368Z,-1.37
2017-01-18T01:38:18.987Z,-1.36
2017-01-18T01:39:34.887Z,-1.32
2017-01-18T01:40:48.521Z,-1.3
2017-01-18T01:42:02.112Z,-1.3
2017-01-18T01:43:15.998Z,-1.32
2017-01-18T01:44:29.462Z,-1.33
2017-01-18T01:45:44.044Z,-1.33
2017-01-18T01:46:57.959Z,-1.32
2017-01-18T01:48:12.433Z,-1.34
2017-01-18T01:49:25.882Z,-1.34
2017-01-18T01:50:39.338Z,-1.35
2017-01-18T01:51:53.103Z,-1.35
2017-01-18T01:53:07.161Z,-1.35
2017-01-18T01:54:20.749Z,-1.32
2017-01-18T01:55:34.186Z,-1.34
2017-01-18T01:56:47.650Z,-1.38
2017-01-18T01:58:01.862Z,-1.4
2017-01-18T01:59:15.301Z,-1.42
2017-01-18T02:00:29.213Z,-1.39
2017-01-18T02:01:42.659Z,-1.39
2017-01-18T02:02:56.533Z,-1.41
2017-01-18T02:04:10.347Z,-1.4
2017-01-18T02:05:23.793Z,-1.39
2017-01-18T02:06:37.274Z,-1.38
2017-01-18T02:07:50.713Z,-1.38
2017-01-18T02:09:04.596Z,-1.4
2017-01-18T02:10:18.023Z,-1.41
2017-01-18T02:11:32.194Z,-1.41
2017-01-18T02:12:45.616Z,-1.44
2017-01-18T02:14:15.147Z,-1.43
2017-01-18T02:15:29.410Z,-1.44
2017-01-18T02:16:42.904Z,-1.42
2017-01-18T02:17:56.335Z,-1.42
2017-01-18T02:19:09.980Z,-1.44
2017-01-18T02:20:24.100Z,-1.46
2017-01-18T02:21:37.836Z,-1.48
2017-01-18T02:22:51.262Z,-1.51
2017-01-18T02:24:04.810Z,-1.54
2017-01-18T02:25:18.328Z,-1.57
2017-01-18T02:26:31.964Z,-1.58
2017-01-18T02:27:46.371Z,-1.61
2017-01-18T02:28:59.837Z,-1.63
2017-01-18T02:30:13.762Z,-1.67
2017-01-18T02:31:27.893Z,-1.68
2017-01-18T02:32:41.631Z,-1.71
2017-01-18T02:33:55.757Z,-1.75
2017-01-18T02:35:09.281Z,-1.78
2017-01-18T02:36:24.406Z,-1.79
2017-01-18T02:37:37.825Z,-1.77
2017-01-18T02:38:51.304Z,-1.78
2017-01-18T02:40:05.018Z,-1.78
2017-01-18T02:41:19.719Z,-1.77
2017-01-18T02:42:33.117Z,-1.8
2017-01-18T02:43:46.506Z,-1.84
2017-01-18T02:45:00.348Z,-1.88
2017-01-18T02:46:14.088Z,-1.87
2017-01-18T02:47:28.859Z,-1.84
2017-01-18T02:48:42.278Z,-1.83
2017-01-18T02:49:55.717Z,-1.83
2017-01-18T02:51:09.243Z,-1.83
2017-01-18T02:52:23.044Z,-1.82
2017-01-18T02:53:36.478Z,-1.79
2017-01-18T02:54:49.914Z,-1.77
2017-01-18T02:56:05.483Z,-1.76
2017-01-18T02:57:20.665Z,-1.72
2017-01-18T02:58:34.766Z,-1.71
2017-01-18T02:59:48.198Z,-1.7
2017-01-18T03:01:01.686Z,-1.68
2017-01-18T03:02:15.114Z,-1.65
2017-01-18T03:03:29.803Z,-1.65
2017-01-18T03:04:43.728Z,-1.66
2017-01-18T03:05:58.134Z,-1.6
2017-01-18T03:07:13.644Z,-1.58
2017-01-18T03:08:27.117Z,-1.55
2017-01-18T03:09:47.561Z,-1.56
2017-01-18T03:11:06.179Z,-1.58
2017-01-18T03:12:19.602Z,-1.6
2017-01-18T03:13:33.115Z,-1.61
2017-01-18T03:14:51.068Z,-1.62
2017-01-18T03:16:10.908Z,-1.63
2017-01-18T03:17:32.158Z,-1.6
2017-01-18T03:18:48.863Z,-1.56
2017-01-18T03:20:07.176Z,-1.52
2017-01-18T03:21:24.729Z,-1.52
2017-01-18T03:22:38.524Z,-1.5
2017-01-18T03:23:52.001Z,-1.49
2017-01-18T03:25:05.414Z,-1.45
2017-01-18T03:27:16.811Z,-1.45
2017-01-18T03:28:30.309Z,-1.47
2017-01-18T03:29:43.718Z,-1.52
2017-01-18T03:30:57.158Z,-1.56
2017-01-18T03:32:10.597Z,-1.55
2017-01-18T03:33:24.043Z,-1.57
2017-01-18T03:34:37.826Z,-1.59
2017-01-18T03:35:51.278Z,-1.6
2017-01-18T03:37:05.009Z,-1.61
2017-01-18T03:38:18.478Z,-1.61
2017-01-18T03:39:31.957Z,-1.59
2017-01-18T03:40:45.665Z,-1.6
2017-01-18T03:41:59.095Z,-1.6
2017-01-18T03:43:12.503Z,-1.6
2017-01-18T03:44:25.987Z,-1.6
2017-01-18T03:45:39.511Z,-1.62
2017-01-18T03:46:53.267Z,-1.61
2017-01-18T03:48:06.673Z,-1.57
2017-01-18T03:49:20.123Z,-1.52
2017-01-18T03:50:33.591Z,-1.53
2017-01-18T03:51:46.975Z,-1.55
2017-01-18T03:53:00.655Z,-1.53
2017-01-18T03:54:14.124Z,-1.53
2017-01-18T03:55:28.948Z,-1.52
2017-01-18T03:56:42.358Z,-1.52
2017-01-18T03:57:56.205Z,-1.52
2017-01-18T03:59:09.900Z,-1.5
2017-01-18T04:00:23.416Z,-1.49
2017-01-18T04:01:36.829Z,-1.5
2017-01-18T04:02:50.237Z,-1.48
2017-01-18T04:04:03.637Z,-1.5
2017-01-18T04:05:17.402Z,-1.49
2017-01-18T04:06:31.329Z,-1.45
2017-01-18T04:07:45.157Z,-1.41
2017-01-18T04:08:58.597Z,-1.39
2017-01-18T04:10:12.014Z,-1.37
2017-01-18T04:11:25.791Z,-1.33
2017-01-18T04:12:39.251Z,-1.27
2017-01-18T04:13:55.092Z,-1.21
2017-01-18T04:15:08.472Z,-1.15
2017-01-18T04:16:22.392Z,-1.13
2017-01-18T04:17:36.146Z,-1.14
2017-01-18T04:18:49.597Z,-1.17
2017-01-18T04:20:03.072Z,-1.21
2017-01-18T04:21:16.499Z,-1.26
2017-01-18T04:22:30.101Z,-1.25
2017-01-18T04:23:43.836Z,-1.26
2017-01-18T04:24:57.282Z,-1.26
2017-01-18T04:26:11.137Z,-1.28
2017-01-18T04:27:25.879Z,-1.28
2017-01-18T04:28:39.276Z,-1.28
2017-01-18T04:29:52.990Z,-1.27
2017-01-18T04:31:06.466Z,-1.29
2017-01-18T04:32:20.126Z,-1.26
2017-01-18T04:33:33.690Z,-1.26
2017-01-18T04:34:47.101Z,-1.26
2017-01-18T04:36:00.809Z,-1.24
2017-01-18T04:37:14.243Z,-1.21
2017-01-18T04:38:27.737Z,-1.2
2017-01-18T04:39:41.263Z,-1.17
2017-01-18T04:40:54.671Z,-1.17
2017-01-18T04:42:08.386Z,-1.17
2017-01-18T04:43:21.940Z,-1.18
2017-01-18T04:44:35.391Z,-1.2
2017-01-18T04:45:49.273Z,-1.2
2017-01-18T04:47:02.872Z,-1.18
2017-01-18T04:48:16.637Z,-1.17
2017-01-18T04:49:30.144Z,-1.17
2017-01-18T04:50:43.715Z,-1.19
2017-01-18T04:51:57.121Z,-1.22
2017-01-18T04:53:10.549Z,-1.2
2017-01-18T04:54:24.538Z,-1.16
2017-01-18T04:55:38.012Z,-1.15
2017-01-18T04:56:51.428Z,-1.15
2017-01-18T04:58:04.903Z,-1.12
2017-01-18T04:59:18.492Z,-1.12
2017-01-18T05:00:32.264Z,-1.12
2017-01-18T05:02:04.933Z,-1.09
2017-01-18T05:03:18.475Z,-1.07
2017-01-18T05:04:31.971Z,-1.06
2017-01-18T05:05:46.110Z,-1.08
2017-01-18T05:06:59.563Z,-1.1
2017-01-18T05:08:13.016Z,-1.11
2017-01-18T05:09:26.476Z,-1.13
2017-01-18T05:10:39.896Z,-1.14
2017-01-18T05:11:54.020Z,-1.12
2017-01-18T05:13:07.460Z,-1.11
2017-01-18T05:14:20.958Z,-1.06
2017-01-18T05:15:34.426Z,-0.99
2017-01-18T05:16:47.930Z,-0.96
2017-01-18T05:18:01.675Z,-0.99
2017-01-18T05:19:15.176Z,-1.06
2017-01-18T05:20:29.007Z,-1.1
2017-01-18T05:21:42.931Z,-1.16
2017-01-18T05:22:56.826Z,-1.17
2017-01-18T05:24:11.054Z,-1.19
2017-01-18T05:25:26.235Z,-1.2
2017-01-18T05:26:40.231Z,-1.2
2017-01-18T05:27:53.706Z,-1.23
2017-01-18T05:29:07.224Z,-1.22
2017-01-18T05:30:23.241Z,-1.07
2017-01-18T05:31:36.851Z,-0.87
2017-01-18T05:32:50.403Z,-0.73
2017-01-18T05:34:04.462Z,-0.69
2017-01-18T05:35:18.104Z,-0.63
2017-01-18T05:36:32.331Z,-0.62
2017-01-18T05:37:46.062Z,-0.62
2017-01-18T05:38:59.488Z,-0.69
2017-01-18T05:40:12.984Z,-0.75
2017-01-18T05:41:26.964Z,-0.81
2017-01-18T05:42:40.711Z,-0.86
2017-01-18T05:43:55.466Z,-0.91
2017-01-18T05:45:08.993Z,-0.94
2017-01-18T05:46:22.510Z,-0.98
2017-01-18T05:47:36.420Z,-1
2017-01-18T05:48:50.287Z,-1.05
2017-01-18T05:50:03.805Z,-1.1
2017-01-18T05:51:17.753Z,-1.09
2017-01-18T05:52:31.656Z,-1.12
2017-01-18T05:53:45.147Z,-1.18
2017-01-18T05:54:58.948Z,-1.21
2017-01-18T05:56:12.559Z,-1.23
2017-01-18T05:57:27.279Z,-1.26
2017-01-18T05:58:41.210Z,-1.28
2017-01-18T05:59:54.665Z,-1.31
2017-01-18T06:01:08.420Z,-1.32
2017-01-18T06:02:21.947Z,-1.34
2017-01-18T06:03:35.400Z,-1.32
2017-01-18T06:04:48.854Z,-1.32
2017-01-18T06:06:02.290Z,-1.32
2017-01-18T06:07:16.451Z,-1.31
2017-01-18T06:08:30.575Z,-1.32
2017-01-18T06:09:44.474Z,-1.3
2017-01-18T06:10:57.920Z,-1.34
2017-01-18T06:12:11.393Z,-1.37
2017-01-18T06:13:25.245Z,-1.36
2017-01-18T06:14:39.131Z,-1.36
2017-01-18T06:15:52.625Z,-1.37
2017-01-18T06:17:06.087Z,-1.38
2017-01-18T06:18:20.012Z,-1.41
2017-01-18T06:19:34.225Z,-1.45
2017-01-18T06:20:47.845Z,-1.46
2017-01-18T06:22:01.382Z,-1.5
2017-01-18T06:23:14.852Z,-1.55
2017-01-18T06:24:28.527Z,-1.54
2017-01-18T06:25:42.256Z,-1.56
2017-01-18T06:26:55.681Z,-1.57
2017-01-18T06:28:09.188Z,-1.61
2017-01-18T06:29:23.348Z,-1.59
2017-01-18T06:30:36.851Z,-1.57
2017-01-18T06:31:50.622Z,-1.59
2017-01-18T06:33:04.259Z,-1.6
2017-01-18T06:34:19.308Z,-1.58
2017-01-18T06:35:32.828Z,-1.58
2017-01-18T06:36:46.758Z,-1.59
2017-01-18T06:38:00.515Z,-1.57
2017-01-18T06:39:14.001Z,-1.57
2017-01-18T06:40:27.527Z,-1.59
2017-01-18T06:41:40.993Z,-1.61
2017-01-18T06:42:54.522Z,-1.63
2017-01-18T06:44:08.373Z,-1.63
2017-01-18T06:45:21.963Z,-1.63
2017-01-18T06:46:37.633Z,-1.65
2017-01-18T06:47:51.521Z,-1.7
2017-01-18T06:49:05.421Z,-1.72
2017-01-18T06:52:40.203Z,-1.72
2017-01-18T06:53:53.817Z,-1.74
2017-01-18T06:55:07.567Z,-1.72
2017-01-18T06:56:21.275Z,-1.69
2017-01-18T06:57:34.794Z,-1.62
2017-01-18T06:58:48.275Z,-1.58
2017-01-18T07:00:01.745Z,-1.57
2017-01-18T07:01:15.294Z,-1.56
2017-01-18T07:02:29.360Z,-1.58
2017-01-18T07:03:43.236Z,-1.56
2017-01-18T07:04:56.670Z,-1.55
2017-01-18T07:06:11.373Z,-1.54
2017-01-18T07:07:24.829Z,-1.52
2017-01-18T07:08:38.601Z,-1.47
2017-01-18T07:09:52.033Z,-1.44
2017-01-18T07:11:05.637Z,-1.42
2017-01-18T07:12:19.137Z,-1.43
2017-01-18T07:13:32.572Z,-1.44
2017-01-18T07:14:46.692Z,-1.48
2017-01-18T07:16:00.660Z,-1.5
2017-01-18T07:17:14.194Z,-1.5
2017-01-18T07:18:27.621Z,-1.52
2017-01-18T07:19:41.049Z,-1.52
2017-01-18T07:20:54.722Z,-1.52
2017-01-18T07:22:08.275Z,-1.53
2017-01-18T07:23:21.876Z,-1.52
2017-01-18T07:24:35.308Z,-1.52
2017-01-18T07:25:48.726Z,-1.52
2017-01-18T07:27:02.593Z,-1.5
2017-01-18T07:28:16.862Z,-1.53
2017-01-18T07:29:30.285Z,-1.55
2017-01-18T07:30:43.794Z,-1.56
2017-01-18T07:31:57.206Z,-1.57
2017-01-18T07:33:11.027Z,-1.55
2017-01-18T07:34:24.441Z,-1.55
2017-01-18T07:35:37.925Z,-1.58
2017-01-18T07:36:51.779Z,-1.61
2017-01-18T07:38:06.520Z,-1.65
2017-01-18T07:39:20.200Z,-1.66
2017-01-18T07:40:33.641Z,-1.69
2017-01-18T07:41:47.075Z,-1.68
2017-01-18T07:43:01.432Z,-1.68
2017-01-18T07:44:14.887Z,-1.69
2017-01-18T07:45:28.635Z,-1.71
2017-01-18T07:46:42.126Z,-1.7
2017-01-18T07:47:55.982Z,-1.7
2017-01-18T07:49:11.255Z,-1.69
2017-01-18T07:50:24.713Z,-1.69
2017-01-18T07:51:38.422Z,-1.68
2017-01-18T07:52:51.916Z,-1.67
2017-01-18T07:54:05.602Z,-1.66
2017-01-18T07:55:19.033Z,-1.64
2017-01-18T07:56:32.509Z,-1.61
2017-01-18T07:57:46.227Z,-1.61
2017-01-18T07:59:00.180Z,-1.6
2017-01-18T08:00:13.634Z,-1.58
2017-01-18T08:01:27.129Z,-1.6
2017-01-18T08:02:40.675Z,-1.63
2017-01-18T08:03:56.658Z,-1.68
2017-01-18T08:05:10.177Z,-1.67
2017-01-18T08:06:23.623Z,-1.65
2017-01-18T08:07:37.483Z,-1.62
2017-01-18T08:08:51.092Z,-1.6
2017-01-18T08:10:04.861Z,-1.58
2017-01-18T08:11:18.286Z,-1.59
2017-01-18T08:12:31.928Z,-1.59
2017-01-18T08:13:45.355Z,-1.57
2017-01-18T08:14:58.912Z,-1.58
2017-01-18T08:16:12.657Z,-1.57
2017-01-18T08:17:26.091Z,-1.55
2017-01-18T08:18:39.561Z,-1.54
2017-01-18T08:19:53.026Z,-1.54
2017-01-18T08:21:06.586Z,-1.52
2017-01-18T08:22:20.547Z,-1.5
2017-01-18T08:23:34.112Z,-1.52
2017-01-18T08:24:47.739Z,-1.53
2017-01-18T08:26:01.253Z,-1.56
2017-01-18T08:27:14.687Z,-1.58
2017-01-18T08:28:28.413Z,-1.62
2017-01-18T08:29:42.280Z,-1.67
2017-01-18T08:30:55.762Z,-1.69
2017-01-18T08:32:09.619Z,-1.71
2017-01-18T08:33:23.088Z,-1.69
2017-01-18T08:34:36.905Z,-1.64
2017-01-18T08:35:50.343Z,-1.62
2017-01-18T08:37:04.743Z,-1.6
2017-01-18T08:38:18.236Z,-1.57
2017-01-18T08:39:31.960Z,-1.55
2017-01-18T08:40:45.724Z,-1.56
2017-01-18T08:41:59.274Z,-1.56
2017-01-18T08:43:12.739Z,-1.54
2017-01-18T08:44:26.164Z,-1.49
2017-01-18T08:45:39.590Z,-1.5
2017-01-18T08:46:53.431Z,-1.5
2017-01-18T08:48:06.905Z,-1.5
2017-01-18T08:49:20.400Z,-1.46
2017-01-18T08:50:33.833Z,-1.46
2017-01-18T08:51:47.323Z,-1.44
2017-01-18T08:53:04.290Z,-1.42
2017-01-18T08:54:22.503Z,-1.42
2017-01-18T08:55:36.780Z,-1.44
2017-01-18T08:56:50.783Z,-1.45
2017-01-18T08:58:05.105Z,-1.44
2017-01-18T08:59:19.285Z,-1.38
2017-01-18T09:00:32.757Z,-1.33
2017-01-18T09:02:06.331Z,-1.32
2017-01-18T09:03:20.610Z,-1.31
2017-01-18T09:04:34.435Z,-1.3
2017-01-18T09:05:47.934Z,-1.27
2017-01-18T09:07:01.396Z,-1.23
2017-01-18T09:08:14.961Z,-1.21
2017-01-18T09:09:28.453Z,-1.24
2017-01-18T09:10:42.263Z,-1.25
2017-01-18T09:11:55.706Z,-1.25
2017-01-18T09:13:09.190Z,-1.24
2017-01-18T09:14:22.606Z,-1.21
2017-01-18T09:15:36.127Z,-1.14
2017-01-18T09:16:50.406Z,-1.1
2017-01-18T09:18:03.865Z,-1.11
2017-01-18T09:19:17.844Z,-1.09
2017-01-18T09:20:33.878Z,-1.07
2017-01-18T09:21:47.306Z,-1.08
2017-01-18T09:23:01.072Z,-1.07
2017-01-18T09:24:14.565Z,-1.07
2017-01-18T09:25:28.012Z,-1.07
2017-01-18T09:26:41.879Z,-1.07
2017-01-18T09:27:55.355Z,-1.09
2017-01-18T09:29:09.563Z,-1.07
2017-01-18T09:30:23.132Z,-1.04
2017-01-18T09:31:36.560Z,-1.04
2017-01-18T09:32:49.976Z,-1.04
2017-01-18T09:34:03.366Z,-1.06
2017-01-18T09:35:17.234Z,-1.06
2017-01-18T09:36:30.651Z,-1.02
2017-01-18T09:37:44.099Z,-1
2017-01-18T09:38:57.530Z,-0.94
2017-01-18T09:40:11.045Z,-0.91
2017-01-18T09:41:24.763Z,-0.85
2017-01-18T09:42:38.198Z,-0.78
2017-01-18T09:43:52.257Z,-0.75
2017-01-18T09:45:05.773Z,-0.71
2017-01-18T09:46:19.212Z,-0.65
2017-01-18T09:47:32.955Z,-0.64
2017-01-18T09:48:46.375Z,-0.62
2017-01-18T09:49:59.853Z,-0.65
2017-01-18T09:51:13.391Z,-0.69
2017-01-18T09:52:26.802Z,-0.72
2017-01-18T09:53:40.518Z,-0.69
2017-01-18T09:54:53.954Z,-0.67
2017-01-18T09:56:07.502Z,-0.66
2017-01-18T09:57:20.988Z,-0.66
2017-01-18T09:58:34.455Z,-0.63
2017-01-18T09:59:48.687Z,-0.63
2017-01-18T10:01:02.231Z,-0.61
2017-01-18T10:02:15.696Z,-0.54
2017-01-18T10:03:29.748Z,-0.48
2017-01-18T10:04:43.230Z,-0.42
2017-01-18T10:05:56.960Z,-0.42
2017-01-18T10:07:10.543Z,-0.36
2017-01-18T10:08:24.060Z,-0.33
2017-01-18T10:09:37.995Z,-0.33
2017-01-18T10:10:51.502Z,-0.36
2017-01-18T10:12:05.351Z,-0.36
2017-01-18T10:13:18.852Z,-0.36
2017-01-18T10:14:32.832Z,-0.31
2017-01-18T10:15:46.306Z,-0.25
2017-01-18T10:17:01.090Z,-0.26
2017-01-18T10:18:14.766Z,-0.29
2017-01-18T10:19:28.220Z,-0.3
2017-01-18T10:20:41.647Z,-0.3
2017-01-18T10:21:55.042Z,-0.28
2017-01-18T10:23:08.794Z,-0.26
2017-01-18T10:24:22.508Z,-0.25
2017-01-18T10:25:35.965Z,-0.22
2017-01-18T10:26:49.369Z,-0.21
2017-01-18T10:28:02.893Z,-0.26
2017-01-18T10:29:16.417Z,-0.32
2017-01-18T10:30:30.138Z,-0.33
2017-01-18T10:31:43.551Z,-0.32
2017-01-18T10:32:57.072Z,-0.3
2017-01-18T10:34:10.511Z,-0.29
2017-01-18T10:35:23.967Z,-0.29
2017-01-18T10:36:39.943Z,-0.23
2017-01-18T10:37:54.310Z,-0.15
2017-01-18T10:39:07.761Z,-0.08
2017-01-18T10:40:21.212Z,-0.03
2017-01-18T10:41:34.630Z,-0.01
2017-01-18T10:42:48.339Z,0.02
2017-01-18T10:44:01.832Z,0.1
2017-01-18T10:45:15.278Z,0.19
2017-01-18T10:46:28.733Z,0.21
2017-01-18T10:47:42.168Z,0.19
2017-01-18T10:48:56.026Z,0.15
2017-01-18T10:50:09.506Z,0.11
2017-01-18T10:51:48.643Z,0.12
2017-01-18T10:53:02.571Z,0.07
2017-01-18T10:54:16.362Z,0.07
2017-01-18T10:55:29.868Z,0.1
2017-01-18T10:56:43.356Z,0.13
2017-01-18T10:57:56.796Z,0.1
2017-01-18T10:59:10.780Z,0.08
2017-01-18T11:00:24.506Z,0.04
2017-01-18T11:01:37.990Z,0.03
2017-01-18T11:02:51.413Z,0.03
2017-01-18T11:04:04.862Z,0.07
2017-01-18T11:05:18.389Z,0.14
2017-01-18T11:06:32.519Z,0.17
2017-01-18T11:07:45.990Z,0.23
2017-01-18T11:08:59.503Z,0.23
2017-01-18T11:10:13.537Z,0.22
2017-01-18T11:11:27.017Z,0.21
2017-01-18T11:12:40.882Z,0.25
2017-01-18T11:13:54.765Z,0.29
2017-01-18T11:15:08.688Z,0.38
2017-01-18T11:16:22.227Z,0.43
2017-01-18T11:17:35.868Z,0.5
2017-01-18T11:18:50.089Z,0.51
2017-01-18T11:20:03.600Z,0.51
2017-01-18T11:21:18.374Z,0.47
2017-01-18T11:22:31.910Z,0.41
2017-01-18T11:23:45.396Z,0.42
2017-01-18T11:24:59.309Z,0.42
2017-01-18T11:26:12.954Z,0.39
2017-01-18T11:27:26.418Z,0.37
2017-01-18T11:28:39.918Z,0.37
2017-01-18T11:29:53.368Z,0.4
2017-01-18T11:31:07.113Z,0.43
2017-01-18T11:32:21.177Z,0.4
2017-01-18T11:33:34.659Z,0.41
2017-01-18T11:34:48.561Z,0.42
2017-01-18T11:36:02.081Z,0.48
2017-01-18T11:37:17.223Z,0.53
2017-01-18T11:38:30.697Z,0.53
2017-01-18T11:39:44.210Z,0.51
2017-01-18T11:40:58.051Z,0.46
2017-01-18T11:42:12.807Z,0.43
2017-01-18T11:45:50.751Z,0.41
2017-01-18T11:47:04.634Z,0.36
2017-01-18T11:48:18.150Z,0.37
2017-01-18T11:49:32.318Z,0.38
2017-01-18T11:50:45.794Z,0.42
2017-01-18T11:51:59.242Z,0.46
2017-01-18T11:53:13.199Z,0.48
2017-01-18T11:54:28.846Z,0.52
2017-01-18T11:55:43.443Z,0.53
2017-01-18T11:56:56.917Z,0.52
2017-01-18T11:58:10.551Z,0.47
2017-01-18T11:59:23.969Z,0.43
2017-01-18T12:00:37.407Z,0.41
2017-01-18T12:01:51.134Z,0.41
2017-01-18T12:03:04.616Z,0.4
2017-01-18T12:04:19.467Z,0.42
2017-01-18T12:06:24.125Z,0.42
2017-01-18T12:07:38.728Z,0.45
2017-01-18T12:08:53.535Z,0.47
2017-01-18T12:10:07.433Z,0.46
2017-01-18T12:11:20.916Z,0.48
2017-01-18T12:12:34.443Z,0.42
2017-01-18T12:15:48.562Z,0.48
2017-01-18T12:17:02.008Z,0.53
2017-01-18T12:18:17.327Z,0.56
2017-01-18T12:19:31.072Z,0.55
2017-01-18T12:20:44.656Z,0.52
2017-01-18T12:21:58.122Z,0.54
2017-01-18T12:23:11.579Z,0.57
2017-01-18T12:24:25.059Z,0.59
2017-01-18T12:25:38.932Z,0.62
2017-01-18T12:26:52.780Z,0.61
2017-01-18T12:28:16.533Z,0.64
2017-01-18T12:29:30.086Z,0.66
2017-01-18T12:30:43.655Z,0.7
2017-01-18T12:31:57.433Z,0.73
2017-01-18T12:33:10.928Z,0.78
2017-01-18T12:34:24.375Z,0.75
2017-01-18T12:35:37.921Z,0.7
2017-01-18T12:36:51.485Z,0.69
2017-01-18T12:38:05.231Z,0.72
2017-01-18T12:39:18.678Z,0.78
2017-01-18T12:40:32.556Z,0.82
2017-01-18T12:41:47.300Z,0.86
2017-01-18T12:43:00.829Z,0.85
2017-01-18T12:44:14.281Z,0.89
2017-01-18T12:45:27.750Z,0.92
2017-01-18T12:46:41.333Z,0.95
2017-01-18T12:47:54.844Z,0.99
2017-01-18T12:49:08.279Z,0.96
2017-01-18T12:50:22.096Z,0.93
2017-01-18T12:51:35.551Z,0.92
2017-01-18T12:52:49.178Z,0.97
2017-01-18T12:54:03.168Z,0.94
2017-01-18T12:55:16.628Z,0.93
2017-01-18T12:56:30.394Z,0.89
2017-01-18T12:57:43.972Z,0.83
2017-01-18T12:58:57.392Z,0.83
2017-01-18T13:00:10.857Z,0.85
2017-01-18T13:01:24.336Z,0.87
2017-01-18T13:02:38.147Z,0.91
2017-01-18T13:03:51.629Z,0.94
2017-01-18T13:05:05.137Z,0.97
2017-01-18T13:06:18.606Z,0.97
2017-01-18T13:07:32.102Z,0.97
2017-01-18T13:08:45.965Z,0.99
2017-01-18T13:09:59.426Z,1
2017-01-18T13:11:12.896Z,1.05
2017-01-18T13:12:28.517Z,1.06
2017-01-18T13:13:42.610Z,1.06
2017-01-18T13:14:56.412Z,1.06
2017-01-18T13:16:09.918Z,1.09
2017-01-18T13:17:23.400Z,1.11
2017-01-18T13:18:37.018Z,1.1
2017-01-18T13:19:50.497Z,1.16
2017-01-18T13:21:04.257Z,1.22
2017-01-18T13:22:17.725Z,1.25
2017-01-18T13:23:31.168Z,1.31
2017-01-18T13:24:44.727Z,1.35
2017-01-18T13:25:58.207Z,1.36
2017-01-18T13:27:11.973Z,1.36
2017-01-18T13:28:25.501Z,1.33
2017-01-18T13:29:39.033Z,1.31
2017-01-18T13:30:52.625Z,1.33
2017-01-18T13:32:06.571Z,1.35
2017-01-18T13:33:20.161Z,1.37
2017-01-18T13:34:35.648Z,1.33
2017-01-18T13:35:49.153Z,1.3
2017-01-18T13:37:02.621Z,1.26
2017-01-18T13:38:16.141Z,1.22
2017-01-18T13:39:30.002Z,1.23
2017-01-18T13:40:43.535Z,1.27
2017-01-18T13:41:56.981Z,1.29
2017-01-18T13:43:10.427Z,1.32
2017-01-18T13:44:23.880Z,1.32
2017-01-18T13:45:39.078Z,1.34
2017-01-18T13:46:52.546Z,1.37
2017-01-18T13:48:06.003Z,1.37
2017-01-18T13:49:19.512Z,1.4
2017-01-18T13:50:33.028Z,1.39
2017-01-18T13:51:46.819Z,1.41
2017-01-18T13:53:00.346Z,1.39
2017-01-18T13:54:14.247Z,1.33
2017-01-18T13:55:27.757Z,1.3
2017-01-18T13:56:41.251Z,1.25
2017-01-18T13:57:55.454Z,1.22
2017-01-18T13:59:08.862Z,1.2
2017-01-18T14:00:22.277Z,1.21
2017-01-18T14:01:35.786Z,1.22
2017-01-18T14:02:49.410Z,1.24
2017-01-18T14:04:03.136Z,1.26
2017-01-18T14:05:16.593Z,1.27
2017-01-18T14:06:30.526Z,1.32
2017-01-18T14:07:44.034Z,1.34
2017-01-18T14:08:57.459Z,1.37
2017-01-18T14:10:11.190Z,1.37
2017-01-18T14:11:24.673Z,1.38
2017-01-18T14:12:49.309Z,1.38
2017-01-18T14:14:02.809Z,1.34
2017-01-18T14:15:16.337Z,1.37
2017-01-18T14:16:30.262Z,1.41
2017-01-18T14:17:43.730Z,1.45
2017-01-18T14:18:57.160Z,1.42
2017-01-18T14:20:10.593Z,1.39
2017-01-18T14:21:24.047Z,1.38
2017-01-18T14:22:37.808Z,1.38
2017-01-18T14:23:51.482Z,1.39
2017-01-18T14:25:04.932Z,1.36
2017-01-18T14:26:18.801Z,1.35
2017-01-18T14:27:32.276Z,1.38
2017-01-18T14:28:48.259Z,1.39
2017-01-18T14:30:01.735Z,1.34
2017-01-18T14:31:15.195Z,1.34
2017-01-18T14:32:28.675Z,1.32
2017-01-18T14:33:42.206Z,1.29
2017-01-18T14:34:55.981Z,1.26
2017-01-18T14:36:09.899Z,1.26
2017-01-18T14:37:23.784Z,1.25
2017-01-18T14:38:37.661Z,1.27
2017-01-18T14:39:51.220Z,1.3
2017-01-18T14:41:04.974Z,1.32
2017-01-18T14:42:18.410Z,1.32
2017-01-18T14:43:32.064Z,1.33
2017-01-18T14:44:47.211Z,1.35
2017-01-18T14:46:01.055Z,1.35
2017-01-18T14:47:15.267Z,1.29
2017-01-18T14:48:28.716Z,1.25
2017-01-18T14:49:43.438Z,1.21
2017-01-18T14:50:56.906Z,1.14
2017-01-18T14:52:10.374Z,1.08
2017-01-18T14:53:23.799Z,1.04
2017-01-18T14:54:37.261Z,1.03
2017-01-18T14:55:52.120Z,0.99
2017-01-18T14:57:05.617Z,0.99
2017-01-18T14:58:19.179Z,0.97
2017-01-18T14:59:33.379Z,0.99
2017-01-18T15:00:47.329Z,1
2017-01-18T15:02:00.786Z,0.99
2017-01-18T15:03:14.270Z,0.95
2017-01-18T15:04:27.668Z,0.93
2017-01-18T15:05:41.521Z,0.92
2017-01-18T15:06:54.945Z,0.9
2017-01-18T15:08:08.451Z,0.91
2017-01-18T15:09:22.279Z,0.92
2017-01-18T15:10:36.125Z,0.9
2017-01-18T15:11:50.847Z,0.9
2017-01-18T15:13:04.260Z,0.9
2017-01-18T15:14:17.817Z,0.89
2017-01-18T15:15:31.492Z,0.89
2017-01-18T15:16:46.625Z,0.89
2017-01-18T15:18:00.365Z,0.94
2017-01-18T15:19:13.902Z,0.95
2017-01-18T15:20:27.350Z,0.93
2017-01-18T15:21:41.643Z,0.93
2017-01-18T15:22:56.058Z,0.91
2017-01-18T15:24:09.827Z,0.87
2017-01-18T15:25:23.265Z,0.85
2017-01-18T15:26:36.708Z,0.87
2017-01-18T15:27:51.431Z,0.84
2017-01-18T15:29:04.913Z,0.8
2017-01-18T15:30:18.668Z,0.76
2017-01-18T15:31:32.114Z,0.74
2017-01-18T15:32:45.688Z,0.75
2017-01-18T15:33:59.658Z,0.74
2017-01-18T15:35:13.356Z,0.73
2017-01-18T15:36:27.474Z,0.68
2017-01-18T15:37:42.867Z,0.66
2017-01-18T15:38:56.308Z,0.67
2017-01-18T15:40:09.734Z,0.65
2017-01-18T15:41:23.628Z,0.66
2017-01-18T15:42:37.506Z,0.65
2017-01-18T15:43:52.761Z,0.64
2017-01-18T15:45:08.931Z,0.64
2017-01-18T15:46:22.901Z,0.62
2017-01-18T15:47:36.392Z,0.6
2017-01-18T15:48:51.229Z,0.57
2017-01-18T15:50:04.789Z,0.56
2017-01-18T15:51:18.738Z,0.54
2017-01-18T15:52:32.175Z,0.52
2017-01-18T15:53:48.096Z,0.52
2017-01-18T15:55:01.885Z,0.52
2017-01-18T15:56:15.338Z,0.51
2017-01-18T15:57:28.801Z,0.5
2017-01-18T15:58:42.344Z,0.48
2017-01-18T15:59:56.976Z,0.49
2017-01-18T16:01:10.662Z,0.47
2017-01-18T16:02:24.100Z,0.47
2017-01-18T16:03:37.559Z,0.44
2017-01-18T16:04:51.117Z,0.42
2017-01-18T16:06:04.563Z,0.39
2017-01-18T16:07:18.299Z,0.37
2017-01-18T16:08:34.328Z,0.37
2017-01-18T16:09:47.965Z,0.39
2017-01-18T16:11:01.424Z,0.38
2017-01-18T16:12:15.558Z,0.39
2017-01-18T16:13:30.424Z,0.38
2017-01-18T16:14:44.645Z,0.37
2017-01-18T16:15:58.670Z,0.37